createdAt,value
2022-07-31T00:00:38.147Z,90.30
2022-07-31T00:03:06.361Z,90.20
2022-07-31T00:05:38.623Z,89.90
2022-07-31T00:08:09.305Z,90.10
2022-07-31T00:10:39.354Z,90.10
2022-07-31T00:13:06.906Z,90.00
2022-07-31T00:15:34.449Z,90.10
2022-07-31T00:18:02.337Z,90.20
2022-07-31T00:20:29.956Z,90.00
2022-07-31T00:22:57.739Z,90.20
2022-07-31T00:25:25.703Z,90.40
2022-07-31T00:27:53.534Z,90.50
2022-07-31T00:30:21.108Z,90.10
2022-07-31T00:32:52.007Z,90.00
2022-07-31T00:35:19.773Z,90.50
2022-07-31T00:37:47.671Z,90.40
2022-07-31T00:40:16.831Z,90.60
2022-07-31T00:42:44.507Z,90.50
2022-07-31T00:45:13.253Z,90.50
2022-07-31T00:47:41.884Z,90.50
2022-07-31T00:50:10.719Z,90.50
2022-07-31T00:52:38.750Z,90.80
2022-07-31T00:55:06.967Z,90.90
2022-07-31T00:57:38.055Z,90.90
2022-07-31T01:00:06.831Z,91.20
2022-07-31T01:02:46.327Z,91.00
2022-07-31T01:05:14.430Z,91.00
2022-07-31T01:07:42.151Z,91.00
2022-07-31T01:10:10.998Z,91.40
2022-07-31T01:12:42.652Z,91.00
2022-07-31T01:15:11.690Z,91.60
2022-07-31T01:17:41.729Z,91.40
2022-07-31T01:20:09.763Z,91.60
2022-07-31T01:22:56.378Z,91.60
2022-07-31T01:26:11.322Z,91.40
2022-07-31T01:29:00.140Z,91.30
2022-07-31T01:31:35.103Z,91.40
2022-07-31T01:34:23.210Z,91.70
2022-07-31T01:37:02.698Z,91.20
2022-07-31T01:39:34.151Z,91.30
2022-07-31T01:42:06.731Z,91.30
2022-07-31T01:44:42.000Z,91.20
2022-07-31T01:47:14.143Z,91.10
2022-07-31T01:49:43.604Z,91.10
2022-07-31T01:52:13.126Z,91.00
2022-07-31T01:54:41.768Z,91.10
2022-07-31T01:57:10.915Z,90.80
2022-07-31T01:59:46.000Z,91.10
2022-07-31T02:02:22.819Z,90.90
2022-07-31T02:04:52.354Z,90.90
2022-07-31T02:07:21.062Z,90.90
2022-07-31T02:09:52.351Z,90.80
2022-07-31T02:12:33.475Z,90.80
2022-07-31T02:15:09.635Z,90.70
2022-07-31T02:17:39.805Z,90.80
2022-07-31T02:20:27.880Z,90.50
2022-07-31T02:22:58.523Z,90.40
2022-07-31T02:25:27.514Z,90.60
2022-07-31T02:27:59.005Z,90.50
2022-07-31T02:30:38.858Z,90.70
2022-07-31T02:33:12.435Z,90.60
2022-07-31T02:35:43.970Z,90.60
2022-07-31T02:38:22.736Z,90.70
2022-07-31T02:40:56.545Z,90.40
2022-07-31T02:43:26.809Z,90.20
2022-07-31T02:46:00.014Z,90.30
2022-07-31T02:48:28.149Z,90.50
2022-07-31T02:51:00.048Z,90.70
2022-07-31T02:53:28.536Z,90.70
2022-07-31T02:56:04.433Z,90.50
2022-07-31T02:58:37.965Z,90.70
2022-07-31T03:01:06.440Z,90.90
2022-07-31T03:03:35.439Z,91.00
2022-07-31T03:06:03.276Z,91.00
2022-07-31T03:08:31.113Z,90.90
2022-07-31T03:11:03.780Z,90.80
2022-07-31T03:13:33.665Z,91.00
2022-07-31T03:16:02.291Z,91.00
2022-07-31T03:18:31.200Z,91.10
2022-07-31T03:20:58.906Z,91.10
2022-07-31T03:23:27.999Z,90.70
2022-07-31T03:26:06.040Z,90.80
2022-07-31T03:28:35.909Z,90.90
2022-07-31T03:31:04.531Z,91.10
2022-07-31T03:33:32.310Z,91.10
2022-07-31T03:36:00.325Z,91.00
2022-07-31T03:38:41.844Z,91.10
2022-07-31T03:41:19.391Z,91.10
2022-07-31T03:43:48.649Z,91.20
2022-07-31T03:46:23.789Z,91.30
2022-07-31T03:48:52.484Z,91.30
2022-07-31T03:51:20.961Z,91.40
2022-07-31T03:53:49.029Z,91.30
2022-07-31T03:56:37.964Z,91.20
2022-07-31T03:59:05.544Z,91.40
2022-07-31T04:01:57.948Z,91.40
2022-07-31T04:04:37.316Z,91.40
2022-07-31T04:07:06.145Z,91.40
2022-07-31T04:09:35.428Z,91.40
2022-07-31T04:12:05.878Z,91.00
2022-07-31T04:14:33.726Z,90.80
2022-07-31T04:17:01.372Z,90.60
2022-07-31T04:19:32.545Z,90.50
2022-07-31T04:22:01.003Z,90.60
2022-07-31T04:24:28.679Z,90.50
2022-07-31T04:27:45.611Z,90.30
2022-07-31T04:30:15.772Z,90.60
2022-07-31T04:32:44.887Z,90.70
2022-07-31T04:35:15.461Z,90.50
2022-07-31T04:37:48.188Z,90.50
2022-07-31T04:40:17.228Z,90.60
2022-07-31T04:42:44.901Z,90.80
2022-07-31T04:45:12.692Z,90.80
2022-07-31T04:47:40.560Z,90.90
2022-07-31T04:50:08.593Z,91.10
2022-07-31T04:52:36.137Z,91.00
2022-07-31T04:55:09.542Z,91.20
2022-07-31T04:59:06.067Z,90.90
2022-07-31T05:01:35.602Z,91.80
2022-07-31T05:04:03.625Z,91.80
2022-07-31T05:06:37.829Z,92.40
2022-07-31T05:09:09.417Z,92.60
2022-07-31T05:11:41.188Z,92.70
2022-07-31T05:14:11.210Z,92.70
2022-07-31T05:16:39.216Z,92.60
2022-07-31T05:19:13.690Z,92.70
2022-07-31T05:21:56.382Z,92.80
2022-07-31T05:24:44.351Z,93.40
2022-07-31T05:27:12.739Z,93.30
2022-07-31T05:29:42.843Z,93.40
2022-07-31T05:32:11.686Z,93.50
2022-07-31T05:34:39.626Z,93.30
2022-07-31T05:37:07.585Z,93.30
2022-07-31T05:39:37.566Z,93.40
2022-07-31T05:42:25.293Z,93.40
2022-07-31T05:45:19.073Z,93.40
2022-07-31T05:47:47.878Z,93.50
2022-07-31T05:50:15.601Z,93.50
2022-07-31T05:52:46.371Z,93.40
2022-07-31T05:55:48.072Z,93.50
2022-07-31T05:58:30.479Z,93.30
2022-07-31T06:00:58.150Z,93.40
2022-07-31T06:03:34.700Z,93.30
2022-07-31T06:06:20.989Z,93.40
2022-07-31T06:08:48.507Z,93.50
2022-07-31T06:11:16.099Z,93.50
2022-07-31T06:13:43.942Z,94.40
2022-07-31T06:16:20.319Z,93.60
2022-07-31T06:18:47.923Z,94.40
2022-07-31T06:23:41.945Z,93.50
2022-07-31T06:26:36.111Z,93.50
2022-07-31T06:29:04.370Z,93.40
2022-07-31T06:31:31.969Z,93.70
2022-07-31T06:33:59.976Z,93.80
2022-07-31T06:36:36.285Z,93.90
2022-07-31T06:39:05.332Z,93.80
2022-07-31T06:41:52.499Z,93.70
2022-07-31T06:44:31.443Z,93.80
2022-07-31T06:47:19.314Z,93.70
2022-07-31T06:50:06.198Z,93.60
2022-07-31T06:52:39.447Z,94.60
2022-07-31T06:55:08.147Z,94.10
2022-07-31T06:57:35.818Z,94.20
2022-07-31T07:00:19.720Z,94.10
2022-07-31T07:02:49.600Z,94.10
2022-07-31T07:05:17.570Z,94.00
2022-07-31T07:07:48.053Z,94.10
2022-07-31T07:10:15.721Z,94.20
2022-07-31T07:13:15.674Z,94.20
2022-07-31T07:15:43.227Z,94.50
2022-07-31T07:18:11.103Z,94.70
2022-07-31T07:20:51.464Z,94.60
2022-07-31T07:23:20.816Z,94.70
2022-07-31T07:26:08.744Z,94.60
2022-07-31T07:28:36.354Z,94.80
2022-07-31T07:31:09.378Z,95.50
2022-07-31T07:33:41.657Z,95.10
2022-07-31T07:36:23.540Z,95.20
2022-07-31T07:38:56.446Z,95.10
2022-07-31T07:41:25.472Z,95.10
2022-07-31T07:43:53.648Z,95.10
2022-07-31T07:46:24.226Z,95.20
2022-07-31T07:48:56.224Z,95.20
2022-07-31T07:51:37.373Z,95.40
2022-07-31T07:54:31.141Z,95.30
2022-07-31T07:57:21.255Z,95.40
2022-07-31T08:00:09.962Z,95.50
2022-07-31T08:03:47.325Z,95.50
2022-07-31T08:05:45.090Z,95.50
2022-07-31T08:08:12.708Z,95.80
2022-07-31T08:10:49.137Z,95.70
2022-07-31T08:13:46.624Z,96.10
2022-07-31T08:16:35.734Z,96.40
2022-07-31T08:19:03.656Z,96.60
2022-07-31T08:21:32.907Z,96.90
2022-07-31T08:24:00.507Z,96.60
2022-07-31T08:26:48.135Z,96.30
2022-07-31T08:29:16.138Z,96.40
2022-07-31T08:31:49.369Z,96.50
2022-07-31T08:34:40.369Z,96.90
2022-07-31T08:37:59.304Z,96.70
2022-07-31T08:39:58.415Z,96.80
2022-07-31T08:42:26.158Z,96.80
2022-07-31T08:44:54.480Z,96.80
2022-07-31T08:47:28.927Z,96.90
2022-07-31T08:50:01.642Z,96.30
2022-07-31T08:52:32.312Z,96.40
2022-07-31T08:55:09.653Z,96.40
2022-07-31T08:57:37.393Z,95.90
2022-07-31T09:00:11.535Z,95.90
2022-07-31T09:02:43.583Z,95.60
2022-07-31T09:05:41.990Z,95.60
2022-07-31T09:08:15.004Z,95.60
2022-07-31T09:10:49.864Z,95.60
2022-07-31T09:13:19.126Z,95.40
2022-07-31T09:15:48.581Z,95.60
2022-07-31T09:18:25.384Z,95.70
2022-07-31T09:21:09.756Z,95.60
2022-07-31T09:23:46.787Z,95.50
2022-07-31T09:26:15.546Z,95.20
2022-07-31T09:28:46.457Z,94.80
2022-07-31T09:31:14.123Z,94.80
2022-07-31T09:34:10.194Z,94.60
2022-07-31T09:36:37.810Z,94.50
2022-07-31T09:39:26.870Z,94.40
2022-07-31T09:42:38.373Z,94.50
2022-07-31T09:45:24.717Z,94.60
2022-07-31T09:48:15.180Z,94.50
2022-07-31T09:51:02.782Z,94.90
2022-07-31T09:53:47.260Z,94.70
2022-07-31T09:56:34.969Z,94.60
2022-07-31T09:59:03.551Z,94.30
2022-07-31T10:01:36.439Z,94.40
2022-07-31T10:04:06.947Z,94.20
2022-07-31T10:06:36.019Z,94.00
2022-07-31T10:09:05.181Z,93.70
2022-07-31T10:11:55.691Z,93.50
2022-07-31T10:14:28.944Z,93.20
2022-07-31T10:16:59.905Z,93.30
2022-07-31T10:19:51.726Z,93.40
2022-07-31T10:22:35.064Z,93.50
2022-07-31T10:25:03.527Z,93.30
2022-07-31T10:27:32.265Z,93.50
2022-07-31T10:30:10.490Z,93.50
2022-07-31T10:32:43.640Z,93.10
2022-07-31T10:35:31.573Z,93.20
2022-07-31T10:38:25.518Z,92.80
2022-07-31T10:41:09.910Z,92.80
2022-07-31T10:43:42.135Z,92.90
2022-07-31T10:46:25.748Z,92.60
2022-07-31T10:49:08.590Z,92.80
2022-07-31T10:52:02.451Z,92.80
2022-07-31T10:54:58.126Z,92.60
2022-07-31T10:57:56.797Z,92.50
2022-07-31T11:01:08.305Z,92.50
2022-07-31T11:03:39.891Z,92.50
2022-07-31T11:06:48.632Z,92.70
2022-07-31T11:09:51.331Z,93.30
2022-07-31T11:12:28.716Z,92.90
2022-07-31T11:15:24.435Z,92.80
2022-07-31T11:18:28.767Z,93.30
2022-07-31T11:21:28.866Z,92.90
2022-07-31T11:23:56.399Z,92.20
2022-07-31T11:26:32.910Z,92.30
2022-07-31T11:30:00.509Z,93.20
2022-07-31T11:31:51.230Z,91.90
2022-07-31T11:34:18.734Z,92.10
2022-07-31T11:36:50.854Z,92.30
2022-07-31T11:39:19.315Z,92.70
2022-07-31T11:41:54.401Z,92.60
2022-07-31T11:44:22.638Z,92.30
2022-07-31T11:46:53.611Z,92.80
2022-07-31T11:49:39.146Z,92.10
2022-07-31T11:52:31.333Z,92.00
2022-07-31T11:55:09.666Z,92.00
2022-07-31T11:57:52.013Z,92.00
2022-07-31T12:00:29.748Z,91.80
2022-07-31T12:02:58.560Z,91.30
2022-07-31T12:05:37.951Z,90.80
2022-07-31T12:08:07.975Z,91.10
2022-07-31T12:10:36.182Z,90.10
2022-07-31T12:13:03.865Z,90.80
2022-07-31T12:15:31.686Z,91.00
2022-07-31T12:18:03.751Z,90.50
2022-07-31T12:20:36.850Z,90.00
2022-07-31T12:23:06.033Z,90.20
2022-07-31T12:25:43.597Z,91.40
2022-07-31T12:28:14.288Z,91.80
2022-07-31T12:30:42.762Z,91.80
2022-07-31T12:33:12.389Z,91.40
2022-07-31T12:35:55.313Z,90.40
2022-07-31T12:38:47.769Z,90.10
2022-07-31T12:41:14.044Z,91.20
2022-07-31T12:43:50.892Z,90.90
2022-07-31T12:51:49.326Z,91.10
2022-07-31T12:54:18.226Z,91.00
2022-07-31T12:56:46.874Z,90.90
2022-07-31T12:59:15.290Z,90.40
2022-07-31T13:01:42.985Z,90.60
2022-07-31T13:04:19.253Z,90.70
2022-07-31T13:06:51.789Z,90.00
2022-07-31T13:09:20.230Z,90.40
2022-07-31T13:11:48.206Z,90.90
2022-07-31T13:14:17.202Z,91.20
2022-07-31T13:16:46.303Z,91.20
2022-07-31T13:19:14.307Z,91.10
2022-07-31T13:21:49.171Z,91.40
2022-07-31T13:24:23.774Z,91.40
2022-07-31T13:26:51.416Z,90.90
2022-07-31T13:29:20.614Z,90.50
2022-07-31T13:31:48.288Z,90.70
2022-07-31T13:34:15.930Z,90.80
2022-07-31T13:36:43.507Z,90.70
2022-07-31T13:39:11.267Z,90.80
2022-07-31T13:41:39.689Z,90.90
2022-07-31T13:44:09.593Z,90.70
2022-07-31T13:46:37.597Z,90.50
2022-07-31T13:49:09.283Z,90.20
2022-07-31T13:51:37.990Z,90.50
2022-07-31T13:54:06.851Z,90.60
2022-07-31T13:56:42.435Z,91.10
2022-07-31T13:59:12.493Z,91.00
2022-07-31T14:02:02.812Z,91.50
2022-07-31T14:04:32.400Z,91.90
2022-07-31T14:07:03.456Z,91.30
2022-07-31T14:09:34.692Z,90.70
2022-07-31T14:12:04.254Z,91.30
2022-07-31T14:14:32.345Z,91.00
2022-07-31T14:17:00.102Z,90.50
2022-07-31T14:19:27.707Z,90.30
2022-07-31T14:21:56.920Z,89.60
2022-07-31T14:24:26.083Z,90.10
2022-07-31T14:26:56.156Z,89.60
2022-07-31T14:29:24.407Z,90.20
2022-07-31T14:31:52.032Z,89.80
2022-07-31T14:34:19.594Z,89.60
2022-07-31T14:36:47.198Z,89.80
2022-07-31T14:39:14.812Z,90.20
2022-07-31T14:41:42.876Z,90.20
2022-07-31T14:44:10.400Z,90.40
2022-07-31T14:46:37.866Z,90.60
2022-07-31T14:49:05.619Z,90.60
2022-07-31T14:51:33.210Z,90.70
2022-07-31T14:54:01.014Z,90.90
2022-07-31T14:56:51.729Z,90.50
2022-07-31T14:59:18.017Z,90.00
2022-07-31T15:01:45.678Z,89.80
2022-07-31T15:04:13.291Z,90.40
2022-07-31T15:06:59.318Z,90.40
2022-07-31T15:09:28.363Z,90.40
2022-07-31T15:12:02.106Z,91.00
2022-07-31T15:14:31.071Z,90.70
2022-07-31T15:16:58.910Z,89.80
2022-07-31T15:19:26.576Z,90.20
2022-07-31T15:22:09.954Z,89.70
2022-07-31T15:24:48.196Z,90.10
2022-07-31T15:27:18.901Z,90.00
2022-07-31T15:30:05.957Z,89.80
2022-07-31T15:32:35.918Z,89.20
2022-07-31T15:35:05.274Z,88.90
2022-07-31T15:37:37.747Z,89.10
2022-07-31T15:40:07.658Z,88.70
2022-07-31T15:42:38.348Z,89.20
2022-07-31T15:45:15.190Z,89.20
2022-07-31T15:47:44.284Z,89.50
2022-07-31T15:50:14.186Z,89.90
2022-07-31T15:52:41.783Z,89.70
2022-07-31T15:55:10.447Z,89.30
2022-07-31T15:57:38.540Z,89.40
2022-07-31T16:00:09.596Z,89.70
2022-07-31T16:02:41.583Z,89.20
2022-07-31T16:05:19.878Z,89.60
2022-07-31T16:08:28.538Z,89.80
2022-07-31T16:10:37.641Z,89.50
2022-07-31T16:13:05.263Z,89.70
2022-07-31T16:15:34.646Z,89.90
2022-07-31T16:18:02.702Z,90.40
2022-07-31T16:20:30.207Z,90.00
2022-07-31T16:23:01.316Z,90.30
2022-07-31T16:25:34.922Z,90.60
2022-07-31T16:28:04.212Z,90.30
2022-07-31T16:30:32.475Z,90.70
2022-07-31T16:33:00.103Z,90.00
2022-07-31T16:35:27.902Z,99.90
2022-07-31T16:37:58.414Z,91.30
2022-07-31T16:40:30.599Z,91.30
2022-07-31T16:43:47.254Z,91.40
2022-07-31T16:45:51.867Z,91.30
2022-07-31T16:48:19.577Z,91.70
2022-07-31T16:50:53.235Z,91.20
2022-07-31T16:54:11.076Z,92.60
2022-07-31T16:56:12.171Z,92.70
2022-07-31T16:58:40.289Z,91.90
2022-07-31T17:01:57.218Z,99.90
2022-07-31T17:04:00.402Z,98.20
2022-07-31T17:06:37.902Z,97.90
2022-07-31T17:09:15.864Z,97.40
2022-07-31T17:11:48.080Z,99.50
2022-07-31T17:14:17.885Z,91.30
2022-07-31T17:16:48.073Z,98.80
2022-07-31T17:22:05.186Z,98.00
2022-07-31T17:24:36.703Z,96.30
2022-07-31T17:27:10.873Z,91.00
2022-07-31T17:29:39.780Z,90.70
2022-07-31T17:32:07.984Z,96.50
2022-07-31T17:34:39.556Z,96.60
2022-07-31T17:37:07.683Z,90.60
2022-07-31T17:39:36.281Z,90.50
2022-07-31T17:42:06.585Z,90.50
2022-07-31T17:44:39.912Z,90.90
2022-07-31T17:47:08.424Z,90.80
2022-07-31T17:49:36.642Z,90.60
2022-07-31T17:52:04.718Z,91.10
2022-07-31T17:54:32.816Z,90.50
2022-07-31T17:57:00.490Z,90.70
2022-07-31T17:59:29.174Z,90.90
2022-07-31T18:02:00.765Z,90.90
2022-07-31T18:04:30.578Z,90.90
2022-07-31T18:06:59.741Z,91.30
2022-07-31T18:09:28.553Z,90.80
2022-07-31T18:11:56.898Z,91.00
2022-07-31T18:14:25.136Z,91.00
2022-07-31T18:16:53.447Z,91.30
2022-07-31T18:19:22.194Z,91.10
2022-07-31T18:21:50.927Z,91.30
2022-07-31T18:24:22.719Z,90.70
2022-07-31T18:26:51.629Z,91.20
2022-07-31T18:29:19.381Z,91.00
2022-07-31T18:31:47.291Z,91.00
2022-07-31T18:34:15.327Z,90.80
2022-07-31T18:36:42.923Z,91.20
2022-07-31T18:39:10.910Z,91.20
2022-07-31T18:41:38.833Z,91.10
2022-07-31T18:44:06.430Z,91.60
2022-07-31T18:46:34.505Z,91.40
2022-07-31T18:49:02.551Z,91.50
2022-07-31T18:51:30.183Z,90.90
2022-07-31T18:54:01.565Z,91.30
2022-07-31T18:56:29.702Z,91.30
2022-07-31T18:58:57.363Z,91.00
2022-07-31T19:01:25.010Z,91.20
2022-07-31T19:03:55.679Z,91.30
2022-07-31T19:06:26.573Z,92.00
2022-07-31T19:08:54.477Z,91.50
2022-07-31T19:11:23.320Z,91.00
2022-07-31T19:13:51.032Z,90.90
2022-07-31T19:16:18.773Z,90.80
2022-07-31T19:18:50.341Z,90.80
2022-07-31T19:21:41.343Z,91.30
2022-07-31T19:24:07.815Z,91.10
2022-07-31T19:26:35.794Z,91.20
2022-07-31T19:29:04.072Z,91.00
2022-07-31T19:31:31.930Z,91.30
2022-07-31T19:33:59.532Z,90.90
2022-07-31T19:36:29.301Z,90.70
2022-07-31T19:39:01.844Z,90.50
2022-07-31T19:41:33.711Z,90.20
2022-07-31T19:44:08.204Z,90.50
2022-07-31T19:46:38.754Z,90.70
2022-07-31T19:49:06.542Z,91.70
2022-07-31T19:51:34.220Z,91.20
2022-07-31T19:54:01.782Z,91.10
2022-07-31T19:56:29.712Z,91.20
2022-07-31T19:59:00.033Z,90.80
2022-07-31T20:01:27.631Z,90.60
2022-07-31T20:03:57.569Z,90.40
2022-07-31T20:06:28.042Z,90.40
2022-07-31T20:08:56.739Z,90.30
2022-07-31T20:11:24.360Z,90.20
2022-07-31T20:13:51.925Z,89.80
2022-07-31T20:16:19.518Z,89.80
2022-07-31T20:18:48.213Z,89.80
2022-07-31T20:21:15.867Z,96.70
2022-07-31T20:23:44.321Z,95.20
2022-07-31T20:26:17.680Z,94.80
2022-07-31T20:28:45.210Z,90.20
2022-07-31T20:31:18.531Z,90.40
2022-07-31T20:33:57.062Z,94.70
2022-07-31T20:36:29.387Z,90.20
2022-07-31T20:39:01.077Z,90.30
2022-07-31T20:41:28.578Z,97.80
2022-07-31T20:43:56.245Z,92.80
2022-07-31T20:46:24.070Z,98.10
2022-07-31T20:48:51.759Z,90.40
2022-07-31T20:51:23.280Z,90.80
2022-07-31T20:53:52.306Z,90.70
2022-07-31T20:56:19.950Z,98.90
2022-07-31T20:58:51.756Z,99.80
2022-07-31T21:01:21.667Z,91.10
2022-07-31T21:03:49.945Z,98.80
2022-07-31T21:06:17.576Z,98.20
2022-07-31T21:08:45.872Z,97.20
2022-07-31T21:11:13.492Z,97.30
2022-07-31T21:13:42.027Z,99.70
2022-07-31T21:16:09.626Z,99.30
2022-07-31T21:18:43.083Z,99.40
2022-07-31T21:21:13.346Z,97.60
2022-07-31T21:23:40.866Z,99.00
2022-07-31T21:26:08.456Z,98.90
2022-07-31T21:28:36.498Z,97.80
2022-07-31T21:31:05.346Z,98.70
2022-07-31T21:33:33.397Z,99.50
2022-07-31T21:36:02.219Z,99.90
2022-07-31T21:38:30.153Z,98.70
2022-07-31T21:40:57.965Z,91.70
2022-07-31T21:43:25.719Z,98.70
2022-07-31T21:45:57.480Z,90.50
2022-07-31T21:48:31.361Z,90.10
2022-07-31T21:51:00.880Z,97.70
2022-07-31T21:53:28.539Z,90.70
2022-07-31T21:56:00.787Z,90.70
2022-07-31T21:58:28.305Z,90.60
2022-07-31T22:00:55.914Z,90.90
2022-07-31T22:03:25.358Z,91.10
2022-07-31T22:06:11.330Z,91.20
2022-07-31T22:08:39.023Z,91.30
2022-07-31T22:11:06.895Z,91.40
2022-07-31T22:13:34.442Z,97.80
2022-07-31T22:16:02.011Z,91.40
2022-07-31T22:18:32.397Z,91.80
2022-07-31T22:21:02.784Z,91.10
2022-07-31T22:23:31.006Z,91.20
2022-07-31T22:25:58.884Z,91.20
2022-07-31T22:28:27.280Z,91.20
2022-07-31T22:30:56.007Z,91.20
2022-07-31T22:33:23.737Z,91.30
2022-07-31T22:35:58.763Z,91.30
2022-07-31T22:38:30.466Z,91.30
2022-07-31T22:40:59.392Z,91.30
2022-07-31T22:44:11.251Z,93.80
2022-07-31T22:46:15.528Z,89.90
2022-07-31T22:48:45.274Z,99.90
2022-07-31T22:51:14.592Z,90.70
2022-07-31T22:53:44.095Z,91.10
2022-07-31T22:56:11.613Z,90.90
2022-07-31T22:58:39.162Z,90.80
2022-07-31T23:01:06.671Z,90.60
2022-07-31T23:03:34.178Z,90.80
2022-07-31T23:06:02.759Z,91.10
2022-07-31T23:08:54.857Z,91.20
2022-07-31T23:11:25.777Z,90.70
2022-07-31T23:13:53.694Z,90.50
2022-07-31T23:16:21.480Z,90.20
2022-07-31T23:18:52.108Z,90.90
2022-07-31T23:21:19.931Z,91.30
2022-07-31T23:23:49.007Z,90.80
2022-07-31T23:26:23.914Z,90.60
2022-07-31T23:28:53.306Z,90.60
2022-07-31T23:31:24.263Z,90.70
2022-07-31T23:33:52.582Z,90.70
2022-07-31T23:36:20.498Z,90.90
2022-07-31T23:38:48.174Z,90.80
2022-07-31T23:41:15.791Z,90.70
2022-07-31T23:43:54.195Z,90.70
2022-07-31T23:47:00.962Z,90.80
2022-07-31T23:49:30.471Z,99.90
2022-07-31T23:51:58.122Z,99.90
2022-07-31T23:54:25.668Z,99.80
2022-07-31T23:59:21.031Z,98.60
